Time;durP1;ratioP1;P1;durP2;ratioP2;P2;SDS_P1;SDS_P2;PMS_P1;PMS_P2;Temp;Humidity;BMP_temperature;BMP_pressure;BME280_temperature;BME280_humidity;BME280_pressure;Samples;Min_cycle;Max_cycle;Signal;HPM_P1;HPM_P2
2022/06/29 00:00:10;;;;;;;;;3.00;2.00;;;;;23.95;52.41;101208.03;5058278;28;45322;-76
2022/06/29 00:02:36;;;;;;;;;1.00;1.00;;;;;23.91;52.81;101200.97;5059743;28;45342;-76
2022/06/29 00:05:05;;;;;;;;;2.00;2.00;;;;;23.89;53.17;101206.44;5062417;28;46933;-78
2022/06/29 00:07:31;;;;;;;;;2.33;2.00;;;;;23.88;53.57;101209.22;5058908;28;45265;-76
2022/06/29 00:09:56;;;;;;;;;3.00;1.00;;;;;23.84;53.77;101212.94;5058699;28;45501;-78
2022/06/29 00:12:22;;;;;;;;;3.00;3.00;;;;;23.81;54.24;101205.88;5058293;28;45554;-75
2022/06/29 00:14:47;;;;;;;;;2.00;2.00;;;;;23.77;54.63;101209.63;5057412;28;64392;-76
2022/06/29 00:17:13;;;;;;;;;1.00;1.00;;;;;23.73;55.11;101197.19;5057268;28;64833;-75
2022/06/29 00:19:40;;;;;;;;;4.00;1.00;;;;;23.67;55.31;101197.41;5058620;28;45316;-76
2022/06/29 00:22:06;;;;;;;;;3.67;2.00;;;;;23.61;55.93;101205.72;5057994;28;45556;-76
2022/06/29 00:24:32;;;;;;;;;2.00;2.00;;;;;23.59;56.00;101208.44;5056855;28;46444;-76
2022/06/29 00:26:58;;;;;;;;;4.00;2.00;;;;;23.55;57.01;101208.63;5057669;28;45185;-76
2022/06/29 00:29:23;;;;;;;;;5.00;2.00;;;;;23.51;57.26;101206.03;5057569;28;45223;-76
2022/06/29 00:31:49;;;;;;;;;3.67;2.67;;;;;23.47;57.34;101204.38;5057718;28;45229;-76
2022/06/29 00:34:14;;;;;;;;;2.67;2.67;;;;;23.45;57.83;101198.19;5056771;28;67873;-75
2022/06/29 00:36:39;;;;;;;;;2.00;2.00;;;;;23.43;58.27;101193.75;5057590;28;57803;-76
2022/06/29 00:39:05;;;;;;;;;2.00;2.00;;;;;23.39;58.50;101194.84;5057660;28;61110;-76
2022/06/29 00:41:30;;;;;;;;;5.00;2.00;;;;;23.37;59.20;101194.88;5058050;28;45510;-76
2022/06/29 00:43:56;;;;;;;;;3.67;2.00;;;;;23.35;59.45;101195.88;5057573;28;54613;-76
2022/06/29 00:46:21;;;;;;;;;3.00;3.00;;;;;23.31;59.91;101191.53;5057604;28;67092;-76
2022/06/29 00:48:46;;;;;;;;;8.00;1.67;;;;;23.27;59.67;101186.22;5056296;28;61475;-76
2022/06/29 00:51:16;;;;;;;;;4.67;2.00;;;;;23.26;60.18;101187.16;5057167;28;53495;-76
2022/06/29 00:53:45;;;;;;;;;2.00;2.00;;;;;23.24;60.78;101182.78;5038250;28;47089;-76
2022/06/29 00:56:12;;;;;;;;;2.00;2.00;;;;;23.20;60.37;101189.22;5057351;28;45503;-76
2022/06/29 00:58:40;;;;;;;;;4.00;2.33;;;;;23.18;61.12;101175.81;5057738;28;45344;-75
2022/06/29 01:01:06;;;;;;;;;2.67;2.00;;;;;23.13;61.26;101182.28;5051789;28;45340;-76
2022/06/29 01:03:32;;;;;;;;;1.67;1.67;;;;;23.09;61.30;101180.63;5057771;28;47605;-76
2022/06/29 01:06:00;;;;;;;;;3.00;1.67;;;;;23.07;61.51;101182.50;5058399;28;45602;-78
2022/06/29 01:08:27;;;;;;;;;2.00;2.00;;;;;23.04;62.39;101188.88;5052369;28;45316;-76
2022/06/29 01:10:52;;;;;;;;;2.00;2.00;;;;;23.02;62.64;101179.97;5020042;28;45554;-77
2022/06/29 01:13:17;;;;;;;;;2.00;1.67;;;;;22.99;62.83;101188.16;5037749;28;46365;-75
2022/06/29 01:15:43;;;;;;;;;3.00;3.00;;;;;22.94;62.91;101174.84;5041773;28;45526;-75
2022/06/29 01:18:08;;;;;;;;;1.67;1.67;;;;;22.91;63.20;101183.03;5037667;28;45245;-76
2022/06/29 01:20:33;;;;;;;;;5.00;3.00;;;;;22.90;64.00;101183.06;5039346;28;46013;-76
2022/06/29 01:22:59;;;;;;;;;1.67;1.00;;;;;22.85;64.17;101179.63;5055463;28;64694;-77
2022/06/29 01:25:25;;;;;;;;;3.00;3.00;;;;;22.82;64.37;101177.94;5049309;28;45276;-76
2022/06/29 01:27:50;;;;;;;;;1.33;1.33;;;;;22.80;64.37;101181.59;5047999;28;45385;-76
2022/06/29 01:30:15;;;;;;;;;2.00;2.00;;;;;22.73;64.83;101178.25;5037093;28;58029;-77
2022/06/29 01:32:42;;;;;;;;;0.00;0.00;;;;;22.69;65.34;101171.19;5038656;28;47635;-76
2022/06/29 01:35:09;;;;;;;;;3.67;3.00;;;;;;;;5042616;28;45483;-77
2022/06/29 01:37:34;;;;;;;;;2.00;2.00;;;;;22.63;65.99;101177.66;5057274;28;45222;-75
2022/06/29 01:40:00;;;;;;;;;3.00;3.00;;;;;22.58;66.29;101170.66;5056451;28;45329;-76
2022/06/29 01:42:25;;;;;;;;;2.00;2.00;;;;;22.54;66.30;101174.41;5056115;28;68189;-76
2022/06/29 01:44:50;;;;;;;;;2.67;2.00;;;;;22.48;66.67;101176.38;5051624;28;61416;-75
2022/06/29 01:47:16;;;;;;;;;4.00;3.00;;;;;22.45;67.11;101178.28;5038110;28;59234;-75
2022/06/29 01:49:41;;;;;;;;;5.00;3.00;;;;;22.40;67.99;101178.44;5046231;28;51304;-75
2022/06/29 01:52:06;;;;;;;;;2.67;2.67;;;;;22.38;68.03;101176.72;5044181;28;68088;-75
2022/06/29 01:54:32;;;;;;;;;4.00;3.00;;;;;22.33;68.27;101176.00;5050444;28;45622;-76
2022/06/29 01:56:57;;;;;;;;;4.00;3.00;;;;;22.30;68.31;101176.97;5046987;28;57147;-77
2022/06/29 01:59:22;;;;;;;;;2.00;2.00;;;;;22.30;68.92;101181.47;5045222;28;58678;-76
2022/06/29 02:01:48;;;;;;;;;3.67;3.67;;;;;22.27;69.06;101181.59;5038097;28;46384;-76
2022/06/29 02:04:14;;;;;;;;;2.00;2.00;;;;;22.26;69.17;101180.66;5030141;28;45380;-77
2022/06/29 02:06:40;;;;;;;;;3.00;3.00;;;;;22.22;69.50;101171.84;5054096;28;45276;-77
2022/06/29 02:09:05;;;;;;;;;3.00;3.00;;;;;22.20;69.83;101170.13;5055620;28;45565;-75
2022/06/29 02:11:30;;;;;;;;;2.00;2.00;;;;;22.19;69.94;101166.53;5056829;28;46647;-76
2022/06/29 02:13:56;;;;;;;;;4.00;2.00;;;;;22.17;70.42;101172.91;5060795;28;66381;-75
2022/06/29 02:16:21;;;;;;;;;4.00;2.00;;;;;22.13;70.32;101169.44;5055458;28;60747;-75
2022/06/29 02:18:46;;;;;;;;;5.67;2.00;;;;;22.11;70.43;101174.00;5055566;28;59696;-78
2022/06/29 02:21:12;;;;;;;;;1.33;1.33;;;;;22.06;70.79;101164.28;5055644;28;46637;-75
2022/06/29 02:23:37;;;;;;;;;2.33;2.33;;;;;22.04;70.93;101171.50;5055900;28;67336;-76
2022/06/29 02:26:03;;;;;;;;;1.00;1.00;;;;;21.99;71.62;101174.31;5055606;28;61432;-75
2022/06/29 02:28:28;;;;;;;;;2.67;2.67;;;;;21.94;71.70;101166.41;5056672;28;45574;-76
2022/06/29 02:36:21;;;;;;;;;3.33;3.00;;;;;21.85;72.57;101172.06;5056358;28;45545;-76
2022/06/29 02:38:47;;;;;;;;;2.00;2.00;;;;;21.85;72.69;101166.69;5055466;28;45647;-75
2022/06/29 02:41:12;;;;;;;;;2.00;2.00;;;;;21.83;72.92;101173.03;5055966;28;47315;-75
2022/06/29 02:43:38;;;;;;;;;2.00;2.00;;;;;21.79;73.33;101164.19;5055811;28;62349;-76
2022/06/29 02:46:03;;;;;;;;;3.67;3.67;;;;;21.76;73.56;101163.41;5056179;28;45355;-77
2022/06/29 02:48:29;;;;;;;;;2.67;2.67;;;;;21.72;73.75;101165.28;5055890;28;45638;-77
2022/06/29 02:50:54;;;;;;;;;2.00;2.00;;;;;21.65;74.46;101155.66;5056168;28;47472;-75
2022/06/29 02:53:19;;;;;;;;;3.00;2.00;;;;;21.63;74.36;101160.19;5056131;28;68760;-77
2022/06/29 02:55:45;;;;;;;;;2.00;2.00;;;;;21.58;74.90;101157.66;5056588;28;45296;-78
2022/06/29 02:58:10;;;;;;;;;4.67;3.00;;;;;21.55;75.30;101155.03;5056167;28;58834;-76
2022/06/29 03:00:35;;;;;;;;;2.67;2.67;;;;;21.53;75.00;101154.22;5055446;28;57055;-76
2022/06/29 03:03:01;;;;;;;;;3.00;3.00;;;;;21.51;75.77;101152.47;5056252;28;59385;-75
2022/06/29 03:05:26;;;;;;;;;4.00;3.00;;;;;21.48;76.14;101149.91;5064446;28;45411;-75
2022/06/29 03:07:52;;;;;;;;;2.67;2.33;;;;;21.43;76.04;101161.66;5061473;28;56454;-75
2022/06/29 03:10:17;;;;;;;;;3.00;3.00;;;;;21.39;76.49;101156.41;5056469;28;45538;-78
2022/06/29 03:12:42;;;;;;;;;2.33;2.00;;;;;21.34;76.48;101156.53;5055249;28;61070;-76
2022/06/29 03:15:08;;;;;;;;;3.67;3.33;;;;;21.31;77.14;101151.25;5054699;28;59590;-77
2022/06/29 03:17:34;;;;;;;;;4.33;1.00;;;;;21.29;77.53;101157.56;5057036;28;45445;-77
2022/06/29 03:20:01;;;;;;;;;2.00;2.00;;;;;21.25;77.40;101170.19;5058822;28;47319;-75
2022/06/29 03:22:26;;;;;;;;;1.67;1.67;;;;;21.21;77.72;101160.47;5058539;28;45507;-75
2022/06/29 03:24:52;;;;;;;;;3.00;3.00;;;;;21.19;77.82;101165.84;5059080;28;48153;-75
2022/06/29 03:27:17;;;;;;;;;4.00;2.00;;;;;21.16;78.18;101167.78;5058043;28;55661;-76
2022/06/29 03:29:43;;;;;;;;;3.00;3.00;;;;;21.16;78.71;101165.09;5058759;28;67176;-76
2022/06/29 03:32:08;;;;;;;;;2.00;2.00;;;;;21.14;78.84;101166.91;5058846;28;45373;-77
2022/06/29 03:34:34;;;;;;;;;2.67;2.00;;;;;21.11;78.69;101161.63;5058742;28;63010;-75
2022/06/29 03:36:59;;;;;;;;;4.00;3.00;;;;;21.10;79.42;101157.19;5058119;28;60358;-75
2022/06/29 03:39:24;;;;;;;;;2.00;2.00;;;;;21.09;78.99;101155.41;5061121;28;45639;-74
2022/06/29 03:41:50;;;;;;;;;2.67;2.67;;;;;21.05;79.31;101146.59;5058388;28;45632;-76
2022/06/29 03:44:15;;;;;;;;;5.33;4.00;;;;;21.02;79.43;101146.66;5040948;28;45321;-75
2022/06/29 03:46:40;;;;;;;;;3.00;3.00;;;;;21.03;79.90;101147.53;5059096;28;45530;-75
2022/06/29 03:49:06;;;;;;;;;4.33;3.00;;;;;21.00;79.74;101151.19;5057574;28;46445;-77
2022/06/29 03:51:32;;;;;;;;;2.00;2.00;;;;;20.98;79.96;101153.03;5058395;28;66355;-76
2022/06/29 03:53:57;;;;;;;;;2.33;2.33;;;;;20.97;80.50;101159.31;5058889;28;45503;-76
2022/06/29 03:56:22;;;;;;;;;2.00;2.00;;;;;20.97;80.87;101159.31;5057655;28;61291;-75
2022/06/29 03:58:48;;;;;;;;;4.00;2.33;;;;;20.98;80.76;101160.19;5059180;28;46719;-75
2022/06/29 04:01:13;;;;;;;;;4.67;4.00;;;;;20.98;80.34;101152.13;5057230;28;66060;-75
2022/06/29 04:03:38;;;;;;;;;5.00;3.00;;;;;20.93;80.42;101155.84;5057847;28;62892;-75
2022/06/29 04:06:04;;;;;;;;;3.00;3.00;;;;;20.96;80.44;101160.25;5063100;28;45623;-75
2022/06/29 04:08:29;;;;;;;;;5.00;3.33;;;;;20.98;81.15;101152.13;5057946;28;46371;-75
2022/06/29 04:10:55;;;;;;;;;2.33;2.33;;;;;20.96;81.01;101156.69;5058460;28;45363;-75
2022/06/29 04:13:22;;;;;;;;;2.00;2.00;;;;;20.96;80.81;101154.88;5057740;28;57528;-75
2022/06/29 04:15:48;;;;;;;;;2.00;2.00;;;;;20.96;80.81;101154.88;5058740;28;45590;-76
2022/06/29 04:18:13;;;;;;;;;2.00;2.00;;;;;20.95;81.11;101152.25;5039379;28;46261;-75
2022/06/29 04:23:22;;;;;;;;;2.33;2.33;;;;;20.93;81.69;101150.50;5054944;28;45142;-75
2022/06/29 04:25:48;;;;;;;;;2.67;2.67;;;;;20.92;81.31;101151.38;5057205;28;62412;-75
2022/06/29 04:28:13;;;;;;;;;4.00;2.00;;;;;20.95;81.95;101146.88;5056738;28;57851;-76
2022/06/29 04:30:38;;;;;;;;;6.00;3.00;;;;;20.91;81.54;101156.81;5055019;28;66936;-75
2022/06/29 04:33:04;;;;;;;;;3.67;3.67;;;;;20.88;82.12;101155.09;5058160;28;45407;-76
2022/06/29 04:35:29;;;;;;;;;2.67;2.67;;;;;20.87;82.19;101152.44;5057590;28;60889;-75
2022/06/29 04:37:54;;;;;;;;;3.00;3.00;;;;;20.86;82.24;101148.88;5056810;28;68332;-75
2022/06/29 04:40:20;;;;;;;;;4.00;3.00;;;;;20.85;82.53;101148.91;5057700;28;54962;-75
2022/06/29 04:42:45;;;;;;;;;3.67;3.00;;;;;20.83;82.69;101151.66;5056299;28;60275;-78
2022/06/29 04:47:58;;;;;;;;;3.00;3.00;;;;;20.81;83.67;101150.78;5057367;28;45689;-75
2022/06/29 04:50:23;;;;;;;;;7.33;3.00;;;;;20.82;83.24;101147.16;5052713;28;45461;-77
2022/06/29 04:52:48;;;;;;;;;3.67;3.67;;;;;20.85;83.21;101152.47;5056709;28;59201;-76
2022/06/29 04:55:14;;;;;;;;;5.67;4.33;;;;;20.87;83.43;101157.78;5039952;28;59532;-75
2022/06/29 04:57:39;;;;;;;;;4.00;4.00;;;;;20.91;83.07;101154.13;5057390;28;62543;-75
2022/06/29 05:00:05;;;;;;;;;3.67;3.00;;;;;20.91;83.27;101160.38;5057617;28;54903;-76
2022/06/29 05:02:30;;;;;;;;;3.00;3.00;;;;;20.91;83.20;101155.00;5058609;28;45432;-75
2022/06/29 05:04:56;;;;;;;;;3.67;3.67;;;;;20.93;84.47;101145.13;5056958;28;61602;-76
2022/06/29 05:07:21;;;;;;;;;2.00;2.00;;;;;20.97;84.32;101150.38;5056945;28;64454;-78
2022/06/29 05:09:46;;;;;;;;;5.00;3.33;;;;;20.97;84.06;101155.75;5040495;28;45909;-76
2022/06/29 05:12:12;;;;;;;;;3.00;3.00;;;;;20.93;83.12;101149.56;5037409;28;56449;-75
2022/06/29 05:14:37;;;;;;;;;5.33;3.00;;;;;20.94;83.42;101148.69;5039159;28;62905;-76
2022/06/29 05:17:03;;;;;;;;;3.33;2.33;;;;;20.94;83.05;101143.31;5041915;28;66221;-76
2022/06/29 05:19:28;;;;;;;;;3.00;3.00;;;;;20.93;84.09;101150.50;5037973;28;45280;-77
2022/06/29 05:21:53;;;;;;;;;5.00;5.00;;;;;20.91;84.07;101146.94;5036993;28;56674;-75
2022/06/29 05:24:19;;;;;;;;;4.00;3.00;;;;;20.93;83.59;101141.53;5037238;28;57002;-75
2022/06/29 05:26:44;;;;;;;;;4.00;4.00;;;;;20.95;84.18;101149.56;5032146;28;54747;-76
2022/06/29 05:29:09;;;;;;;;;2.67;2.67;;;;;20.93;84.03;101152.25;5052316;28;64625;-75
2022/06/29 05:31:34;;;;;;;;;10.67;3.00;;;;;20.92;83.54;101145.13;5054229;28;63767;-76
2022/06/29 05:34:00;;;;;;;;;2.00;2.00;;;;;20.92;82.39;101154.06;5056048;28;51252;-76
2022/06/29 05:36:25;;;;;;;;;3.33;2.33;;;;;20.90;80.54;101152.34;5056465;28;60625;-78
2022/06/29 05:38:50;;;;;;;;;2.00;2.00;;;;;20.90;80.07;101158.59;5056832;28;45151;-75
2022/06/29 05:41:16;;;;;;;;;4.33;3.00;;;;;20.87;79.71;101161.34;5050411;28;60181;-76
2022/06/29 05:43:43;;;;;;;;;5.00;2.00;;;;;20.81;79.35;101156.16;5038120;28;45349;-75
2022/06/29 05:46:09;;;;;;;;;1.00;1.00;;;;;20.81;78.53;101160.66;5050465;28;47891;-76
2022/06/29 05:48:34;;;;;;;;;1.33;1.00;;;;;20.79;78.59;101152.66;5041468;28;45372;-75
2022/06/29 05:51:00;;;;;;;;;1.67;1.67;;;;;20.78;78.43;101158.94;5051724;28;45511;-77
2022/06/29 05:53:25;;;;;;;;;2.00;2.00;;;;;20.79;77.10;101144.59;5036627;28;59750;-76
2022/06/29 05:55:50;;;;;;;;;2.00;2.00;;;;;20.85;77.62;101148.91;5051370;28;68937;-75
2022/06/29 05:58:18;;;;;;;;;1.33;1.33;;;;;20.89;77.46;101150.59;5037179;28;45356;-74
2022/06/29 06:00:44;;;;;;;;;4.00;2.00;;;;;20.90;76.96;101150.56;5047603;28;45236;-78
2022/06/29 06:03:10;;;;;;;;;4.33;2.00;;;;;20.97;76.66;101145.00;5057167;28;45590;-75
2022/06/29 06:05:35;;;;;;;;;3.00;3.00;;;;;20.99;76.19;101146.75;5172646;22;47455;-75
2022/06/29 06:08:01;;;;;;;;;4.00;4.00;;;;;20.99;75.38;101149.44;5058012;28;45546;-76
2022/06/29 06:10:26;;;;;;;;;6.33;2.00;;;;;20.95;75.27;101158.50;5076921;28;63644;-76
2022/06/29 06:12:52;;;;;;;;;7.00;3.33;;;;;20.96;75.18;101145.94;5077771;28;45570;-76
2022/06/29 06:15:17;;;;;;;;;2.33;2.00;;;;;20.98;74.73;101144.97;5077600;28;46623;-76
2022/06/29 06:17:42;;;;;;;;;3.00;3.00;;;;;21.02;74.99;101149.34;5076052;28;49616;-76
2022/06/29 06:20:09;;;;;;;;;2.00;2.00;;;;;21.08;74.67;101148.28;5076232;28;55569;-78
2022/06/29 06:22:34;;;;;;;;;4.00;1.00;;;;;21.11;74.43;101150.91;5076396;28;45349;-76
2022/06/29 06:24:59;;;;;;;;;1.67;1.67;;;;;21.14;74.31;101157.03;5075431;28;54859;-76
2022/06/29 06:27:25;;;;;;;;;2.00;1.00;;;;;21.17;74.02;101156.97;5075693;28;68203;-76
2022/06/29 06:29:50;;;;;;;;;4.00;2.00;;;;;21.19;74.41;101147.06;5076028;28;45315;-76
2022/06/29 06:32:15;;;;;;;;;4.00;2.00;;;;;21.23;73.90;101155.91;5075416;28;60419;-76
2022/06/29 06:34:41;;;;;;;;;3.00;1.00;;;;;21.27;73.51;101157.59;5074928;27;46527;-76
2022/06/29 06:37:06;;;;;;;;;2.00;2.00;;;;;21.29;73.08;101154.88;5074571;28;45463;-73
2022/06/29 06:39:32;;;;;;;;;1.00;1.00;;;;;21.23;73.31;101155.91;5065449;28;46349;-72
2022/06/29 06:41:57;;;;;;;;;2.00;2.00;;;;;21.19;73.03;101159.59;5074108;28;45428;-73
2022/06/29 06:44:22;;;;;;;;;4.00;1.00;;;;;21.19;73.71;101156.94;5071048;28;47198;-73
2022/06/29 06:46:51;;;;;;;;;4.00;2.00;;;;;21.18;73.58;101158.72;5073492;28;45371;-73
2022/06/29 06:49:16;;;;;;;;;3.33;1.00;;;;;21.20;72.92;101150.66;5073643;28;45485;-74
2022/06/29 06:51:42;;;;;;;;;3.33;2.00;;;;;21.17;72.92;101153.41;5074498;28;45517;-71
2022/06/29 06:54:07;;;;;;;;;1.00;1.00;;;;;21.13;72.75;101155.28;5074788;28;66575;-71
2022/06/29 06:56:32;;;;;;;;;3.00;1.67;;;;;21.15;72.13;101152.59;5073992;28;65635;-71
2022/06/29 06:58:58;;;;;;;;;1.00;1.00;;;;;21.17;72.53;101137.31;5075919;28;45355;-71
2022/06/29 07:01:23;;;;;;;;;2.00;1.00;;;;;21.19;72.24;101143.50;5075557;28;45586;-71
2022/06/29 07:03:49;;;;;;;;;2.00;2.00;;;;;21.18;71.88;101136.38;5074752;28;68283;-71
2022/06/29 07:06:14;;;;;;;;;1.67;1.33;;;;;21.23;72.41;101150.56;5075488;28;45644;-71
2022/06/29 07:08:40;;;;;;;;;1.33;1.00;;;;;21.29;72.24;101149.50;5055841;28;57142;-71
2022/06/29 07:11:06;;;;;;;;;5.67;2.00;;;;;21.32;71.92;101139.59;5073335;28;45821;-72
2022/06/29 07:13:33;;;;;;;;;1.00;1.00;;;;;21.39;72.82;101145.66;5075277;28;46624;-72
2022/06/29 07:15:58;;;;;;;;;1.33;1.33;;;;;21.45;71.63;101145.47;5071477;28;45423;-71
2022/06/29 07:18:24;;;;;;;;;1.00;1.00;;;;;21.50;71.20;101145.34;5073849;28;46242;-73
2022/06/29 07:20:49;;;;;;;;;2.00;1.33;;;;;21.52;70.96;101140.81;5070933;28;45664;-72
2022/06/29 07:23:14;;;;;;;;;3.00;1.00;;;;;21.56;70.08;101143.34;5075162;28;71492;-72
2022/06/29 07:25:40;;;;;;;;;1.67;1.67;;;;;21.59;70.52;101137.03;5076044;28;45343;-72
2022/06/29 07:28:05;;;;;;;;;2.00;2.00;;;;;21.63;70.58;101142.28;5074348;28;45520;-72
2022/06/29 07:30:31;;;;;;;;;1.00;1.00;;;;;21.71;70.19;101147.41;5075344;28;45216;-70
2022/06/29 07:32:56;;;;;;;;;1.67;1.67;;;;;21.77;69.80;101141.84;5074140;28;48510;-70
2022/06/29 07:35:22;;;;;;;;;4.00;2.00;;;;;21.84;69.97;101143.44;5074864;28;46706;-70
2022/06/29 07:37:47;;;;;;;;;1.00;1.00;;;;;21.91;70.02;101138.72;5075883;28;45747;-70
2022/06/29 07:40:12;;;;;;;;;3.00;2.00;;;;;21.96;68.99;101143.03;5074446;28;51281;-70
2022/06/29 07:42:38;;;;;;;;;3.00;2.00;;;;;22.02;69.15;101138.41;5074707;28;47403;-70
2022/06/29 07:45:05;;;;;;;;;2.67;1.33;;;;;22.05;68.75;101133.81;5075363;28;45537;-70
2022/06/29 07:47:31;;;;;;;;;1.33;1.00;;;;;22.11;68.75;101122.00;5073583;28;45433;-70
2022/06/29 07:49:56;;;;;;;;;3.00;1.00;;;;;22.13;68.64;101138.97;5074710;28;45702;-70
2022/06/29 07:52:21;;;;;;;;;2.00;2.00;;;;;22.16;68.16;101138.88;5073073;28;59180;-70
2022/06/29 07:54:47;;;;;;;;;1.00;1.00;;;;;22.19;68.19;101136.97;5073918;28;66710;-70
2022/06/29 07:57:12;;;;;;;;;2.67;1.00;;;;;22.26;68.44;101131.38;5073563;28;60856;-70
2022/06/29 07:59:37;;;;;;;;;2.00;2.00;;;;;22.34;67.86;101126.63;5075216;28;45302;-71
2022/06/29 08:02:03;;;;;;;;;1.00;1.00;;;;;22.41;67.79;101129.06;5074490;28;70919;-70
2022/06/29 08:04:28;;;;;;;;;2.00;1.00;;;;;22.46;68.40;101135.16;5076112;28;45551;-71
2022/06/29 08:06:54;;;;;;;;;3.00;2.00;;;;;22.51;68.10;101140.41;5078134;28;60935;-70
2022/06/29 08:09:19;;;;;;;;;4.00;1.00;;;;;22.53;68.13;101143.94;5078722;28;50251;-70
2022/06/29 08:11:45;;;;;;;;;0.00;0.00;;;;;22.57;68.16;101131.25;5077037;28;45992;-70
2022/06/29 08:14:10;;;;;;;;;1.00;1.00;;;;;22.59;67.92;101132.09;5078756;28;45402;-70
2022/06/29 08:16:35;;;;;;;;;3.00;1.00;;;;;22.59;67.56;101138.34;5077751;28;48884;-70
2022/06/29 08:19:01;;;;;;;;;3.33;1.33;;;;;22.63;67.89;101120.25;5078100;28;62594;-70
2022/06/29 08:21:26;;;;;;;;;2.33;1.00;;;;;22.65;68.00;101127.38;5078092;28;64525;-70
2022/06/29 08:23:51;;;;;;;;;1.67;1.67;;;;;22.65;68.43;101115.72;5078234;28;64303;-70
2022/06/29 08:26:17;;;;;;;;;2.33;1.00;;;;;22.68;68.84;101116.47;5084862;27;57678;-70
2022/06/29 08:28:42;;;;;;;;;1.00;1.00;;;;;22.69;68.64;101118.25;5078953;28;46736;-71
2022/06/29 08:31:07;;;;;;;;;6.33;2.00;;;;;22.68;69.27;101108.41;5077548;28;67362;-70
2022/06/29 08:33:33;;;;;;;;;2.00;2.00;;;;;22.74;69.02;101107.31;5076833;28;64072;-71
2022/06/29 08:35:58;;;;;;;;;1.33;1.33;;;;;22.79;68.23;101107.16;5077651;28;58686;-71
2022/06/29 08:38:23;;;;;;;;;2.00;2.00;;;;;22.82;67.91;101101.66;5084766;27;62601;-71
2022/06/29 08:40:49;;;;;;;;;2.33;2.33;;;;;22.87;67.49;101105.94;5082341;27;47296;-71
2022/06/29 08:43:16;;;;;;;;;1.00;1.00;;;;;22.88;67.54;101091.59;5078369;27;45572;-71
2022/06/29 08:45:46;;;;;;;;;1.33;1.33;;;;;22.90;67.76;101104.97;5084168;27;45371;-70
2022/06/29 08:48:12;;;;;;;;;1.00;1.00;;;;;22.94;67.22;101107.50;5078091;28;45422;-71
2022/06/29 08:50:39;;;;;;;;;2.33;2.33;;;;;23.03;67.28;101110.81;5078170;28;46539;-71
2022/06/29 08:53:06;;;;;;;;;1.00;1.00;;;;;23.13;67.29;101117.63;5068031;28;45272;-71
2022/06/29 08:55:33;;;;;;;;;3.00;1.00;;;;;23.22;66.90;101114.59;5082782;27;46359;-71
2022/06/29 08:57:59;;;;;;;;;2.67;2.00;;;;;23.30;65.02;101108.94;5060814;28;45558;-71
2022/06/29 09:00:24;;;;;;;;;2.00;2.00;;;;;23.36;65.22;101109.56;5059773;28;74050;-71
2022/06/29 09:02:50;;;;;;;;;2.00;1.00;;;;;23.45;65.43;101111.06;5077420;28;55199;-70
2022/06/29 09:05:15;;;;;;;;;1.00;1.00;;;;;23.52;64.28;101115.25;5081372;27;62344;-71
2022/06/29 09:07:41;;;;;;;;;1.00;1.00;;;;;23.56;64.08;101108.81;5070628;28;45577;-70
2022/06/29 09:10:08;;;;;;;;;1.67;1.00;;;;;23.61;62.98;101114.03;5077858;28;48946;-71
2022/06/29 09:12:34;;;;;;;;;1.00;1.00;;;;;23.62;62.56;101110.41;5077994;28;45339;-71
2022/06/29 09:15:00;;;;;;;;;1.00;1.00;;;;;23.67;62.83;101111.13;5076763;28;50880;-71
2022/06/29 09:17:25;;;;;;;;;1.67;0.33;;;;;23.70;62.01;101114.59;5076986;28;45847;-71
2022/06/29 09:19:53;;;;;;;;;3.33;0.67;;;;;23.73;61.94;101109.06;5076603;28;46611;-71
2022/06/29 09:22:19;;;;;;;;;0.00;0.00;;;;;23.77;61.85;101115.22;5076771;28;45482;-71
2022/06/29 09:24:45;;;;;;;;;1.00;1.00;;;;;23.80;61.74;101112.41;5076812;28;64457;-71
2022/06/29 09:27:11;;;;;;;;;1.33;1.33;;;;;23.85;60.55;101115.78;5077923;28;45478;-70
2022/06/29 09:29:42;;;;;;;;;0.00;0.00;;;;;23.86;59.94;101109.44;5076424;28;64410;-72
2022/06/29 09:32:10;;;;;;;;;2.67;1.33;;;;;23.90;59.63;101124.59;5077191;28;45458;-71
2022/06/29 09:34:55;;;;;;;;;2.00;1.33;;;;;23.89;58.80;101130.94;5078071;28;45412;-71
2022/06/29 09:37:23;;;;;;;;;2.33;1.67;;;;;23.85;58.70;101126.59;5076896;28;53919;-71
2022/06/29 09:39:51;;;;;;;;;2.00;2.00;;;;;23.84;59.45;101132.91;5077635;28;46533;-70
2022/06/29 09:42:18;;;;;;;;;1.00;1.00;;;;;23.84;58.25;101127.53;5077286;28;45442;-70
2022/06/29 09:44:44;;;;;;;;;1.67;1.00;;;;;23.80;57.88;101120.50;5077692;28;45371;-71
2022/06/29 09:47:15;;;;;;;;;5.67;2.33;;;;;23.80;56.97;101123.19;5057263;28;45502;-71
2022/06/29 09:49:45;;;;;;;;;3.00;1.00;;;;;23.81;57.23;101126.75;5076779;28;47508;-71
2022/06/29 09:52:11;;;;;;;;;1.00;1.00;;;;;23.78;56.77;101128.66;5077180;28;45664;-71
2022/06/29 09:55:01;;;;;;;;;2.00;2.00;;;;;23.79;56.31;101129.53;5076262;28;45471;-71
2022/06/29 09:57:30;;;;;;;;;0.67;0.67;;;;;23.80;56.86;101128.56;5076614;28;45423;-71
2022/06/29 10:02:45;;;;;;;;;1.00;1.00;;;;;23.89;57.01;101113.88;5077204;28;45505;-71
2022/06/29 10:05:17;;;;;;;;;1.00;1.00;;;;;23.93;56.38;101113.69;5076926;28;46281;-71
2022/06/29 10:07:47;;;;;;;;;0.00;0.00;;;;;23.95;57.61;101108.22;5073785;28;45508;-71
2022/06/29 10:10:16;;;;;;;;;1.00;1.00;;;;;24.00;57.04;101104.41;5073774;28;47769;-71
2022/06/29 10:16:02;;;;;;;;;1.67;1.67;;;;;24.09;55.84;101107.69;5076754;28;45481;-71
2022/06/29 10:19:05;;;;;;;;;2.00;1.00;;;;;24.16;56.15;101109.19;5076127;28;45461;-71
2022/06/29 10:21:31;;;;;;;;;2.00;2.00;;;;;24.24;56.22;101104.34;5075016;28;46494;-71
2022/06/29 10:24:00;;;;;;;;;1.33;1.00;;;;;24.33;55.96;101093.16;5077204;28;45595;-71
2022/06/29 10:28:54;;;;;;;;;1.67;1.00;;;;;24.42;55.31;101086.53;5076932;28;45666;-71
2022/06/29 10:34:31;;;;;;;;;1.00;1.00;;;;;24.46;56.66;101088.16;5076487;28;45478;-71
2022/06/29 10:37:07;;;;;;;;;2.00;2.00;;;;;24.52;54.07;101080.69;5076747;28;45549;-71
2022/06/29 10:39:44;;;;;;;;;1.00;1.00;;;;;24.58;52.97;101084.94;5077139;28;45371;-71
2022/06/29 10:45:18;;;;;;;;;2.00;1.00;;;;;24.69;53.19;101074.53;5076471;28;45293;-71
2022/06/29 10:47:52;;;;;;;;;2.33;1.00;;;;;24.76;53.34;101076.00;5073389;28;45452;-71
2022/06/29 10:50:22;;;;;;;;;1.00;1.00;;;;;24.79;52.90;101066.91;5075363;28;45641;-71
2022/06/29 10:52:49;;;;;;;;;6.00;1.00;;;;;24.81;53.06;101065.88;5076560;28;46823;-71
2022/06/29 10:55:16;;;;;;;;;2.33;2.00;;;;;24.84;52.82;101056.78;5075801;28;45523;-72
2022/06/29 10:57:43;;;;;;;;;2.00;2.00;;;;;24.91;53.04;101066.34;5076372;28;45444;-71
2022/06/29 11:00:14;;;;;;;;;3.33;2.00;;;;;24.93;52.62;101053.69;5075775;28;45537;-71
2022/06/29 11:02:41;;;;;;;;;1.00;1.00;;;;;24.99;52.80;101061.50;5075823;28;47803;-71
2022/06/29 11:05:07;;;;;;;;;1.67;1.00;;;;;25.04;53.04;101062.19;5076110;28;45893;-71
2022/06/29 11:13:00;;;;;;;;;1.00;1.00;;;;;25.15;51.50;101052.72;5076025;28;45472;-71
2022/06/29 11:15:48;;;;;;;;;1.00;1.00;;;;;25.19;50.72;101046.22;5074659;28;66657;-72
2022/06/29 11:18:19;;;;;;;;;2.67;2.67;;;;;25.24;50.98;101050.47;5076485;28;45522;-71
2022/06/29 11:20:50;;;;;;;;;2.67;2.00;;;;;25.28;50.32;101043.09;5075351;28;45296;-71
2022/06/29 11:23:17;;;;;;;;;0.67;0.67;;;;;25.27;50.46;101039.50;5076308;28;46462;-71
2022/06/29 11:25:46;;;;;;;;;2.33;1.00;;;;;25.29;48.88;101039.44;5076075;28;45438;-71
2022/06/29 11:28:13;;;;;;;;;2.33;1.00;;;;;25.30;49.10;101030.38;5076214;28;45287;-71
2022/06/29 11:30:38;;;;;;;;;1.00;1.00;;;;;25.36;50.55;101040.06;5075892;28;45466;-71
2022/06/29 11:33:10;;;;;;;;;2.00;2.00;;;;;25.39;48.55;101048.00;5074925;28;69255;-72
2022/06/29 11:35:37;;;;;;;;;2.00;0.00;;;;;25.43;48.36;101045.06;5075881;28;45481;-71
2022/06/29 11:38:02;;;;;;;;;4.00;2.00;;;;;25.49;48.37;101033.97;5075085;28;45392;-71
2022/06/29 11:40:41;;;;;;;;;0.67;0.67;;;;;25.56;47.59;101037.25;5078804;28;45484;-71
2022/06/29 11:43:09;;;;;;;;;1.00;1.00;;;;;25.65;48.39;101033.22;5078953;28;46584;-72
2022/06/29 11:45:57;;;;;;;;;0.00;0.00;;;;;25.73;47.29;101040.03;5079396;28;45383;-72
2022/06/29 11:48:28;;;;;;;;;0.00;0.00;;;;;25.80;47.27;101035.22;5079085;28;45708;-71
2022/06/29 11:50:57;;;;;;;;;2.67;0.67;;;;;25.86;46.95;101026.81;5079672;28;45448;-71
2022/06/29 11:53:52;;;;;;;;;2.00;1.00;;;;;26.00;46.50;101035.13;5078684;28;47379;-72